Hornsby Bend, Texas
Current Conditions -  °F | °C
As of 9:53 AM on Thursday 30 Oct 2014 (Local Time) from KAUS Reporting Station
Few Clouds Few Clouds  
Wind Chill: 65°   Ceiling: Unl
Heat Index: 65°   Visibility: 10mi
Dew Point: 57°   Wind: 5mph
Humidity: 75%   Direction: 110°ESE
Pressure: 30.16"   Gusts: NA
Location:  30.2291°N, 97.5973°W
Report Text: KAUS 301453Z 11004KT 10SM FEW100 18/14 A3016 RMK AO2 SLP210 T01830139 53014
Loading
Personal Weather Stations






























Interactive Weather Map
Tropical Storm Tracking
New forecast layout! Learn more

10-Day Weather Forecast

Advertisements
Track Severe Weather on mobile